Time;durP1;ratioP1;P1;durP2;ratioP2;P2;SDS_P1;SDS_P2;PMS_P1;PMS_P2;Temp;Humidity;BMP_temperature;BMP_pressure;BME280_temperature;BME280_humidity;BME280_pressure;Samples;Min_cycle;Max_cycle;Signal;HPM_P1;HPM_P2
2022/05/18 00:04:43;;;;;;;9.85;5.93;;;12.00;99.90;;;;;;21220517;27;20032;-54
2022/05/18 00:14:46;;;;;;;9.20;6.63;;;11.90;99.90;;;;;;21219741;27;20361;-52
2022/05/18 00:24:49;;;;;;;9.93;6.80;;;12.00;99.90;;;;;;21218901;27;20446;-59
2022/05/18 00:34:51;;;;;;;14.05;8.38;;;12.00;99.90;;;;;;21216527;27;20046;-60
2022/05/18 00:44:55;;;;;;;11.57;6.20;;;12.20;99.90;;;;;;21216878;27;20065;-52
2022/05/18 00:55:01;;;;;;;13.82;6.78;;;12.20;99.90;;;;;;21216593;27;20035;-53
2022/05/18 01:05:08;;;;;;;8.80;5.85;;;11.90;99.90;;;;;;21215181;27;20035;-51
2022/05/18 01:15:14;;;;;;;13.82;8.30;;;11.70;99.90;;;;;;21214550;27;20099;-53
2022/05/18 01:25:51;;;;;;;13.38;8.40;;;11.50;99.90;;;;;;21214374;27;20035;-54
2022/05/18 01:35:53;;;;;;;12.70;7.18;;;11.30;99.90;;;;;;21175717;27;20793;-50
2022/05/18 01:46:00;;;;;;;14.85;9.25;;;11.40;99.90;;;;;;21212685;27;20101;-49
2022/05/18 01:56:04;;;;;;;16.70;10.25;;;11.30;99.90;;;;;;21212100;28;20043;-51
2022/05/18 02:06:07;;;;;;;11.63;6.97;;;11.20;99.90;;;;;;21212211;28;20035;-54
2022/05/18 02:16:10;;;;;;;14.43;10.15;;;11.50;99.90;;;;;;21212045;28;20053;-59
2022/05/18 02:26:15;;;;;;;14.93;9.55;;;11.40;99.90;;;;;;21211963;27;20483;-53
2022/05/18 02:36:19;;;;;;;15.60;8.07;;;11.70;99.90;;;;;;21224762;27;20035;-51
2022/05/18 02:46:22;;;;;;;23.15;11.18;;;11.60;99.90;;;;;;21225835;27;20088;-52
2022/05/18 02:56:36;;;;;;;17.83;12.20;;;11.20;99.90;;;;;;21240838;27;20035;-53
2022/05/18 03:06:39;;;;;;;17.83;9.88;;;11.00;99.90;;;;;;21243351;27;20042;-59
2022/05/18 03:16:45;;;;;;;19.58;11.85;;;11.10;99.90;;;;;;21224240;27;20061;-54
2022/05/18 03:26:48;;;;;;;14.02;9.25;;;10.90;99.90;;;;;;21204620;27;20027;-53
2022/05/18 03:36:51;;;;;;;16.83;8.88;;;11.30;99.90;;;;;;21207173;27;20035;-53
2022/05/18 03:46:53;;;;;;;14.43;9.35;;;11.10;99.90;;;;;;21221761;27;20108;-53
2022/05/18 03:56:57;;;;;;;16.13;10.02;;;11.00;99.90;;;;;;21220947;27;20042;-59
2022/05/18 04:06:59;;;;;;;12.55;8.88;;;11.00;99.90;;;;;;21221025;27;20035;-54
2022/05/18 04:17:02;;;;;;;17.58;9.57;;;11.10;99.90;;;;;;21219780;27;20039;-59
2022/05/18 04:27:08;;;;;;;13.93;7.88;;;11.20;99.90;;;;;;21214217;27;20396;-51
2022/05/18 04:37:10;;;;;;;13.05;8.52;;;11.30;99.90;;;;;;21218033;27;20053;-59
2022/05/18 04:47:12;;;;;;;16.17;8.85;;;11.60;99.90;;;;;;21217029;27;20044;-59
2022/05/18 04:57:16;;;;;;;14.02;8.95;;;11.80;99.90;;;;;;21215479;27;20088;-54
2022/05/18 05:07:19;;;;;;;19.08;10.98;;;12.10;99.90;;;;;;21214396;27;20039;-52
2022/05/18 05:17:21;;;;;;;13.48;8.85;;;12.30;99.90;;;;;;21215274;27;20084;-51
2022/05/18 05:27:24;;;;;;;15.27;8.10;;;12.60;99.90;;;;;;21211183;27;20603;-59
2022/05/18 05:37:27;;;;;;;13.02;7.68;;;12.80;99.90;;;;;;21213482;27;20476;-53
2022/05/18 05:47:30;;;;;;;12.57;7.25;;;13.00;99.90;;;;;;21213017;27;20051;-53
2022/05/18 05:57:33;;;;;;;14.55;8.40;;;13.20;99.90;;;;;;21211779;28;20074;-53
2022/05/18 06:07:36;;;;;;;15.32;9.25;;;13.70;99.90;;;;;;21210513;27;20096;-54
2022/05/18 06:17:38;;;;;;;13.07;6.75;;;14.30;99.90;;;;;;21229362;27;20089;-60
2022/05/18 06:27:41;;;;;;;9.00;5.53;;;17.30;99.90;;;;;;21227275;27;20132;-61
2022/05/18 06:37:44;;;;;;;6.35;4.50;;;21.30;99.90;;;;;;21210835;27;20035;-63
2022/05/18 06:47:47;;;;;;;7.25;5.18;;;24.50;99.90;;;;;;21226837;27;20104;-64
2022/05/18 06:57:51;;;;;;;7.32;5.82;;;26.80;96.80;;;;;;21226465;27;20115;-63
2022/05/18 07:07:54;;;;;;;7.60;5.55;;;27.60;93.30;;;;;;21224024;27;20072;-63
2022/05/18 07:18:06;;;;;;;9.13;7.00;;;24.50;96.30;;;;;;21233961;27;20147;-63
2022/05/18 07:28:10;;;;;;;11.60;6.60;;;22.40;99.90;;;;;;21220130;27;20035;-57
2022/05/18 07:38:13;;;;;;;8.38;6.35;;;21.30;99.90;;;;;;21221632;27;20442;-61
2022/05/18 07:48:15;;;;;;;8.20;6.45;;;20.90;99.90;;;;;;21221294;27;20047;-61
2022/05/18 07:58:20;;;;;;;8.93;7.20;;;20.80;99.90;;;;;;21220525;27;20039;-62
2022/05/18 08:08:24;;;;;;;13.32;8.20;;;20.30;99.90;;;;;;21219002;27;20381;-55
2022/05/18 08:18:26;;;;;;;8.88;6.28;;;19.30;99.90;;;;;;21218218;27;20433;-62
2022/05/18 08:28:29;;;;;;;7.57;5.25;;;18.70;99.90;;;;;;21214472;27;20054;-61
2022/05/18 08:38:33;;;;;;;9.20;6.80;;;19.50;99.90;;;;;;21217093;27;20031;-61
2022/05/18 08:48:35;;;;;;;14.48;8.68;;;19.50;99.90;;;;;;21197864;27;20105;-63
2022/05/18 08:58:39;;;;;;;12.45;9.13;;;19.00;99.90;;;;;;21189610;27;20540;-62
2022/05/18 09:10:12;;;;;;;11.93;9.45;;;18.50;99.90;;;;;;21150515;27;20040;-63
2022/05/18 09:19:41;;;;;;;14.00;9.30;;;19.00;99.90;;;;;;21174897;27;20040;-62
2022/05/18 09:30:05;;;;;;;12.35;8.60;;;18.40;99.90;;;;;;21190523;27;20035;-54
2022/05/18 09:40:12;;;;;;;12.80;7.70;;;17.70;99.90;;;;;;21162160;27;20035;-62
2022/05/18 09:50:15;;;;;;;11.20;7.32;;;17.60;99.90;;;;;;21211851;27;20051;-61
2022/05/18 10:00:23;;;;;;;10.90;8.25;;;18.30;99.90;;;;;;21212713;28;20484;-63
2022/05/18 10:10:31;;;;;;;10.52;7.00;;;20.50;99.90;;;;;;21211395;28;20065;-62
2022/05/18 10:20:35;;;;;;;10.02;6.88;;;22.50;99.90;;;;;;21210787;28;20056;-58
2022/05/18 10:30:37;;;;;;;9.20;5.30;;;22.00;99.90;;;;;;21209149;28;20520;-62
2022/05/18 10:40:40;;;;;;;7.38;4.80;;;21.30;99.90;;;;;;21209428;28;20480;-62
2022/05/18 10:50:45;;;;;;;4.07;3.10;;;20.40;99.90;;;;;;21216908;27;20472;-62
2022/05/18 11:00:57;;;;;;;3.95;3.15;;;19.80;99.90;;;;;;21220067;27;20540;-62
2022/05/18 11:11:16;;;;;;;6.00;2.35;;;20.50;99.90;;;;;;21223512;27;20035;-63
2022/05/18 11:22:04;;;;;;;4.15;2.38;;;21.90;99.90;;;;;;21224342;27;20068;-63
2022/05/18 11:32:09;;;;;;;3.10;2.67;;;22.60;99.90;;;;;;20876446;28;20069;-64
2022/05/18 11:42:36;;;;;;;4.47;3.08;;;23.10;99.50;;;;;;20893679;28;20044;-63
2022/05/18 11:53:11;;;;;;;2.97;2.70;;;22.90;98.80;;;;;;20876750;28;20080;-63
2022/05/18 12:03:20;;;;;;;3.97;2.88;;;22.70;99.90;;;;;;20707569;28;20085;-64
2022/05/18 12:13:41;;;;;;;5.65;3.20;;;23.00;99.90;;;;;;20815343;28;20122;-63
2022/05/18 12:23:53;;;;;;;5.38;3.47;;;22.70;99.80;;;;;;20824788;28;20049;-62
2022/05/18 12:34:05;;;;;;;5.50;4.40;;;21.50;99.90;;;;;;20950954;27;20423;-62
2022/05/18 12:44:21;;;;;;;8.57;4.60;;;22.10;99.90;;;;;;21186094;27;20059;-64
2022/05/18 12:54:30;;;;;;;5.30;4.32;;;22.70;99.90;;;;;;21151196;27;20584;-63
2022/05/18 13:04:35;;;;;;;7.22;5.70;;;22.70;99.90;;;;;;21174468;27;20039;-62
2022/05/18 13:15:04;;;;;;;8.27;5.32;;;21.40;99.90;;;;;;21170033;27;20365;-63
2022/05/18 13:25:10;;;;;;;9.80;6.63;;;20.90;99.90;;;;;;21184088;27;20409;-54
2022/05/18 13:35:19;;;;;;;7.53;6.07;;;20.00;99.90;;;;;;21137345;27;20122;-61
2022/05/18 13:45:21;;;;;;;10.17;6.77;;;19.30;99.90;;;;;;21175084;27;20036;-61
2022/05/18 13:55:26;;;;;;;8.82;6.13;;;19.30;99.90;;;;;;21211852;27;20080;-61
2022/05/18 14:05:35;;;;;;;9.02;6.10;;;19.40;99.90;;;;;;21211623;28;20095;-61
2022/05/18 14:15:40;;;;;;;7.97;6.53;;;19.40;99.90;;;;;;21212095;28;20116;-54
2022/05/18 14:25:50;;;;;;;8.57;7.50;;;19.40;99.90;;;;;;21219789;27;20067;-61
2022/05/18 14:35:55;;;;;;;9.35;6.82;;;18.60;99.90;;;;;;21225919;27;20035;-61
2022/05/18 14:46:15;;;;;;;7.63;6.18;;;18.00;99.90;;;;;;21226303;27;20127;-61
2022/05/18 14:56:18;;;;;;;7.40;6.05;;;17.90;99.90;;;;;;21212173;27;20043;-61
2022/05/18 15:06:27;;;;;;;7.28;5.53;;;17.80;99.90;;;;;;21169155;27;20442;-61
2022/05/18 15:16:45;;;;;;;6.15;5.13;;;17.50;99.90;;;;;;21215893;27;20092;-54
2022/05/18 15:26:52;;;;;;;5.65;4.68;;;17.40;99.90;;;;;;21169150;27;20399;-61
2022/05/18 15:36:56;;;;;;;7.87;5.60;;;17.50;99.90;;;;;;21175591;27;20488;-61
2022/05/18 15:47:01;;;;;;;10.35;6.63;;;17.10;99.90;;;;;;21201779;27;20099;-61
2022/05/18 15:57:04;;;;;;;8.10;6.20;;;16.50;99.90;;;;;;21212559;27;20100;-61
2022/05/18 16:07:07;;;;;;;7.38;5.70;;;16.20;99.90;;;;;;21209634;27;20035;-61
2022/05/18 16:17:10;;;;;;;7.22;6.28;;;16.10;99.90;;;;;;21218780;27;20480;-61
2022/05/18 16:27:13;;;;;;;8.88;7.10;;;15.90;99.90;;;;;;21215926;27;20031;-61
2022/05/18 16:37:16;;;;;;;9.07;6.53;;;15.90;99.90;;;;;;21218497;27;20111;-60
2022/05/18 16:47:21;;;;;;;8.60;6.70;;;15.80;99.90;;;;;;21179282;27;20497;-54
2022/05/18 16:57:29;;;;;;;7.70;6.38;;;15.70;99.90;;;;;;21211425;27;20480;-60
2022/05/18 17:07:33;;;;;;;11.53;7.87;;;15.50;99.90;;;;;;21197798;27;20404;-60
2022/05/18 17:17:36;;;;;;;9.63;6.97;;;15.30;99.90;;;;;;21184510;27;20100;-61
2022/05/18 17:27:40;;;;;;;9.43;7.38;;;15.20;99.90;;;;;;21139481;27;20043;-60
2022/05/18 17:37:44;;;;;;;7.85;6.43;;;15.10;99.90;;;;;;21199665;27;20039;-60
2022/05/18 17:47:47;;;;;;;9.73;6.97;;;15.20;99.90;;;;;;21208814;27;20052;-60
2022/05/18 17:57:50;;;;;;;7.65;5.10;;;15.20;99.90;;;;;;21193975;27;20488;-60
2022/05/18 18:07:55;;;;;;;7.32;4.43;;;15.10;99.90;;;;;;21165577;28;20032;-60
2022/05/18 18:17:59;;;;;;;8.15;5.28;;;15.00;99.90;;;;;;21193303;28;20458;-53
2022/05/18 18:28:01;;;;;;;7.82;5.03;;;14.90;99.90;;;;;;21201963;28;20484;-51
2022/05/18 18:38:15;;;;;;;7.93;5.57;;;14.70;99.90;;;;;;21188065;28;20097;-53
2022/05/18 18:48:19;;;;;;;8.57;5.65;;;14.60;99.90;;;;;;21193083;28;20055;-51
2022/05/18 18:58:23;;;;;;;7.32;5.70;;;14.50;99.90;;;;;;21169730;28;20044;-54
2022/05/18 19:08:25;;;;;;;9.82;5.22;;;14.50;99.90;;;;;;21156199;28;20036;-61
2022/05/18 19:18:28;;;;;;;7.43;4.93;;;14.40;99.90;;;;;;21193111;27;20031;-60
2022/05/18 19:28:33;;;;;;;6.43;4.60;;;14.40;99.90;;;;;;21192652;27;20048;-53
2022/05/18 19:38:37;;;;;;;7.38;4.80;;;14.40;99.90;;;;;;21159067;27;20349;-54
2022/05/18 19:48:40;;;;;;;8.70;5.75;;;14.40;99.90;;;;;;21207335;27;20104;-52
2022/05/18 19:58:43;;;;;;;8.07;4.97;;;14.40;99.90;;;;;;21220902;27;20039;-60
2022/05/18 20:08:45;;;;;;;7.65;5.32;;;14.30;99.90;;;;;;21220560;27;20087;-53
2022/05/18 20:18:51;;;;;;;6.53;5.20;;;14.30;99.90;;;;;;21215943;27;20061;-60
2022/05/18 20:28:54;;;;;;;5.68;4.80;;;14.20;99.90;;;;;;21218685;27;20034;-52
2022/05/18 20:38:57;;;;;;;7.15;5.40;;;14.20;99.90;;;;;;21216926;27;20088;-60
2022/05/18 20:49:03;;;;;;;8.93;6.03;;;14.20;99.90;;;;;;21181771;27;20491;-60
2022/05/18 20:59:09;;;;;;;8.68;5.85;;;14.10;99.90;;;;;;21172748;27;20480;-55
2022/05/18 21:09:12;;;;;;;15.98;6.53;;;14.00;99.90;;;;;;21177013;27;20032;-53
2022/05/18 21:19:14;;;;;;;7.25;5.20;;;13.90;99.90;;;;;;21213617;27;20088;-59
2022/05/18 21:29:22;;;;;;;7.43;5.15;;;13.80;99.90;;;;;;21183401;27;20027;-60
2022/05/18 21:39:26;;;;;;;6.40;4.85;;;13.70;99.90;;;;;;21177669;27;20042;-53
2022/05/18 21:49:29;;;;;;;7.63;5.57;;;13.60;99.90;;;;;;21205086;27;20459;-54
2022/05/18 21:59:58;;;;;;;8.07;5.53;;;13.50;99.90;;;;;;21211958;27;20088;-54
2022/05/18 22:10:02;;;;;;;9.33;5.33;;;13.50;99.90;;;;;;21209155;28;20035;-60
2022/05/18 22:20:06;;;;;;;8.23;4.88;;;13.50;99.90;;;;;;21206832;28;20060;-60
2022/05/18 22:30:14;;;;;;;4.03;2.72;;;13.40;99.90;;;;;;21210892;28;20064;-52
2022/05/18 22:40:19;;;;;;;4.57;2.70;;;13.40;99.90;;;;;;21206345;28;20073;-53
2022/05/18 22:50:38;;;;;;;3.28;2.33;;;13.30;99.90;;;;;;21221698;27;20095;-60
2022/05/18 23:00:42;;;;;;;4.60;2.60;;;13.30;99.90;;;;;;21224160;27;20440;-54
2022/05/18 23:10:45;;;;;;;3.65;2.35;;;13.30;99.90;;;;;;21224645;27;20039;-60
2022/05/18 23:20:49;;;;;;;6.07;2.78;;;13.20;99.90;;;;;;21223550;27;20035;-60
2022/05/18 23:30:52;;;;;;;2.38;1.70;;;13.30;99.90;;;;;;21222574;27;20092;-52
2022/05/18 23:40:56;;;;;;;5.38;2.22;;;13.30;99.90;;;;;;21222405;27;20027;-61
2022/05/18 23:51:40;;;;;;;2.90;2.03;;;13.30;99.90;;;;;;21078715;28;20044;-52
